sensor_id;sensor_type;location;lat;lon;timestamp;pressure;altitude;pressure_sealevel;temperature;humidity
17649;BME280;8943;51.110;-4.158;2023-02-19T00:02:29;102259.78;;;13.77;60.83
17649;BME280;8943;51.110;-4.158;2023-02-19T00:04:58;102264.34;;;13.75;60.79
17649;BME280;8943;51.110;-4.158;2023-02-19T00:07:27;102261.66;;;13.75;60.84
17649;BME280;8943;51.110;-4.158;2023-02-19T00:09:55;102256.50;;;13.72;60.71
17649;BME280;8943;51.110;-4.158;2023-02-19T00:12:23;102261.94;;;13.70;60.70
17649;BME280;8943;51.110;-4.158;2023-02-19T00:14:51;102273.53;;;13.71;61.06
17649;BME280;8943;51.110;-4.158;2023-02-19T00:17:20;102260.22;;;13.69;60.70
17649;BME280;8943;51.110;-4.158;2023-02-19T00:19:48;102273.72;;;13.68;60.75
17649;BME280;8943;51.110;-4.158;2023-02-19T00:22:18;102273.81;;;13.66;61.22
17649;BME280;8943;51.110;-4.158;2023-02-19T00:24:47;102273.91;;;13.64;60.93
17649;BME280;8943;51.110;-4.158;2023-02-19T00:27:15;102279.25;;;13.64;60.81
17649;BME280;8943;51.110;-4.158;2023-02-19T00:29:43;102291.69;;;13.65;61.12
17649;BME280;8943;51.110;-4.158;2023-02-19T00:32:11;102289.97;;;13.64;60.70
17649;BME280;8943;51.110;-4.158;2023-02-19T00:34:39;102291.91;;;13.62;60.95
17649;BME280;8943;51.110;-4.158;2023-02-19T00:37:07;102290.94;;;13.63;60.71
17649;BME280;8943;51.110;-4.158;2023-02-19T00:39:37;102298.13;;;13.63;60.66
17649;BME280;8943;51.110;-4.158;2023-02-19T00:42:05;102292.66;;;13.64;60.29
17649;BME280;8943;51.110;-4.158;2023-02-19T00:44:33;102288.38;;;13.62;60.59
17649;BME280;8943;51.110;-4.158;2023-02-19T00:47:01;102290.09;;;13.63;60.03
17649;BME280;8943;51.110;-4.158;2023-02-19T00:49:29;102296.47;;;13.60;60.29
17649;BME280;8943;51.110;-4.158;2023-02-19T00:51:56;102293.72;;;13.62;60.26
17649;BME280;8943;51.110;-4.158;2023-02-19T00:54:25;102300.00;;;13.61;60.17
17649;BME280;8943;51.110;-4.158;2023-02-19T00:56:54;102299.84;;;13.64;59.96
17649;BME280;8943;51.110;-4.158;2023-02-19T00:59:23;102299.72;;;13.65;59.73
17649;BME280;8943;51.110;-4.158;2023-02-19T01:01:51;102304.50;;;13.60;59.67
17649;BME280;8943;51.110;-4.158;2023-02-19T01:04:19;102298.19;;;13.61;59.38
17649;BME280;8943;51.110;-4.158;2023-02-19T01:06:47;102299.16;;;13.60;59.57
17649;BME280;8943;51.110;-4.158;2023-02-19T01:09:15;102299.53;;;13.54;59.44
17649;BME280;8943;51.110;-4.158;2023-02-19T01:11:43;102298.69;;;13.54;59.63
17649;BME280;8943;51.110;-4.158;2023-02-19T01:14:12;102300.59;;;13.52;59.32
17649;BME280;8943;51.110;-4.158;2023-02-19T01:16:40;102311.38;;;13.50;59.52
17649;BME280;8943;51.110;-4.158;2023-02-19T01:19:09;102317.69;;;13.49;59.19
17649;BME280;8943;51.110;-4.158;2023-02-19T01:21:38;102321.34;;;13.48;59.20
17649;BME280;8943;51.110;-4.158;2023-02-19T01:24:07;102331.84;;;13.51;59.00
17649;BME280;8943;51.110;-4.158;2023-02-19T01:26:35;102327.28;;;13.53;58.81
17649;BME280;8943;51.110;-4.158;2023-02-19T01:29:03;102328.72;;;13.59;58.84
17649;BME280;8943;51.110;-4.158;2023-02-19T01:31:33;102328.63;;;13.60;58.60
17649;BME280;8943;51.110;-4.158;2023-02-19T01:34:02;102330.94;;;13.67;58.36
17649;BME280;8943;51.110;-4.158;2023-02-19T01:36:32;102330.06;;;13.66;58.53
17649;BME280;8943;51.110;-4.158;2023-02-19T01:39:01;102335.91;;;13.73;58.62
17649;BME280;8943;51.110;-4.158;2023-02-19T01:41:33;102346.44;;;13.76;58.60
17649;BME280;8943;51.110;-4.158;2023-02-19T01:44:03;102352.28;;;13.82;58.61
17649;BME280;8943;51.110;-4.158;2023-02-19T01:46:36;102351.91;;;13.88;58.56
17649;BME280;8943;51.110;-4.158;2023-02-19T01:49:06;102346.38;;;13.91;58.44
17649;BME280;8943;51.110;-4.158;2023-02-19T01:51:39;102349.34;;;14.01;58.58
17649;BME280;8943;51.110;-4.158;2023-02-19T01:54:10;102346.28;;;14.07;58.68
17649;BME280;8943;51.110;-4.158;2023-02-19T01:56:41;102344.28;;;14.11;58.40
17649;BME280;8943;51.110;-4.158;2023-02-19T01:59:10;102338.69;;;14.14;58.42
17649;BME280;8943;51.110;-4.158;2023-02-19T02:01:40;102342.81;;;14.20;58.10
17649;BME280;8943;51.110;-4.158;2023-02-19T02:04:09;102334.59;;;14.23;58.22
17649;BME280;8943;51.110;-4.158;2023-02-19T02:06:42;102351.44;;;14.25;58.27
17649;BME280;8943;51.110;-4.158;2023-02-19T02:09:13;102356.59;;;14.28;58.44
17649;BME280;8943;51.110;-4.158;2023-02-19T02:12:07;102361.56;;;14.34;58.70
17649;BME280;8943;51.110;-4.158;2023-02-19T02:14:37;102361.28;;;14.38;58.03
17649;BME280;8943;51.110;-4.158;2023-02-19T02:17:15;102365.41;;;14.44;58.52
17649;BME280;8943;51.110;-4.158;2023-02-19T02:20:00;102367.81;;;14.49;58.26
17649;BME280;8943;51.110;-4.158;2023-02-19T02:22:36;102372.50;;;14.45;57.92
17649;BME280;8943;51.110;-4.158;2023-02-19T02:28:01;102377.31;;;14.40;58.59
17649;BME280;8943;51.110;-4.158;2023-02-19T02:30:38;102370.00;;;14.42;58.73
17649;BME280;8943;51.110;-4.158;2023-02-19T02:33:18;102361.97;;;14.42;58.45
17649;BME280;8943;51.110;-4.158;2023-02-19T02:35:50;102374.16;;;14.48;58.43
17649;BME280;8943;51.110;-4.158;2023-02-19T02:38:22;102366.78;;;14.51;58.53
17649;BME280;8943;51.110;-4.158;2023-02-19T02:40:53;102382.00;;;14.51;58.30
17649;BME280;8943;51.110;-4.158;2023-02-19T02:43:22;102385.75;;;14.48;58.41
17649;BME280;8943;51.110;-4.158;2023-02-19T02:45:52;102371.34;;;14.49;58.35
17649;BME280;8943;51.110;-4.158;2023-02-19T02:48:25;102370.44;;;14.50;58.48
17649;BME280;8943;51.110;-4.158;2023-02-19T02:50:56;102369.72;;;14.47;58.32
17649;BME280;8943;51.110;-4.158;2023-02-19T02:53:28;102362.47;;;14.49;58.77
17649;BME280;8943;51.110;-4.158;2023-02-19T02:56:17;102372.16;;;14.51;58.70
17649;BME280;8943;51.110;-4.158;2023-02-19T02:58:47;102381.03;;;14.52;58.46
17649;BME280;8943;51.110;-4.158;2023-02-19T03:01:20;102380.94;;;14.53;58.20
17649;BME280;8943;51.110;-4.158;2023-02-19T03:04:10;102392.34;;;14.57;58.46
17649;BME280;8943;51.110;-4.158;2023-02-19T03:06:41;102372.41;;;14.61;58.36
17649;BME280;8943;51.110;-4.158;2023-02-19T03:09:16;102384.75;;;14.63;58.32
17649;BME280;8943;51.110;-4.158;2023-02-19T03:11:48;102383.72;;;14.66;58.17
17649;BME280;8943;51.110;-4.158;2023-02-19T03:14:38;102382.63;;;14.68;58.32
17649;BME280;8943;51.110;-4.158;2023-02-19T03:17:37;102387.25;;;14.66;58.23
17649;BME280;8943;51.110;-4.158;2023-02-19T03:20:26;102395.31;;;14.66;58.10
17649;BME280;8943;51.110;-4.158;2023-02-19T03:22:55;102392.44;;;14.70;58.00
17649;BME280;8943;51.110;-4.158;2023-02-19T03:25:25;102395.88;;;14.72;57.99
17649;BME280;8943;51.110;-4.158;2023-02-19T03:28:14;102396.94;;;14.69;58.21
17649;BME280;8943;51.110;-4.158;2023-02-19T03:30:46;102379.78;;;14.72;58.07
17649;BME280;8943;51.110;-4.158;2023-02-19T03:33:21;102391.06;;;14.77;58.16
17649;BME280;8943;51.110;-4.158;2023-02-19T03:35:55;102399.91;;;14.79;57.97
17649;BME280;8943;51.110;-4.158;2023-02-19T03:38:29;102392.59;;;14.81;57.95
17649;BME280;8943;51.110;-4.158;2023-02-19T03:41:03;102402.19;;;14.85;58.10
17649;BME280;8943;51.110;-4.158;2023-02-19T03:43:37;102411.09;;;14.85;57.88
17649;BME280;8943;51.110;-4.158;2023-02-19T03:46:10;102412.91;;;14.85;57.79
17649;BME280;8943;51.110;-4.158;2023-02-19T03:48:47;102420.28;;;14.81;57.86
17649;BME280;8943;51.110;-4.158;2023-02-19T03:51:26;102418.69;;;14.79;57.81
17649;BME280;8943;51.110;-4.158;2023-02-19T03:54:05;102416.28;;;14.74;57.76
17649;BME280;8943;51.110;-4.158;2023-02-19T03:56:42;102413.13;;;14.67;57.59
17649;BME280;8943;51.110;-4.158;2023-02-19T03:59:15;102416.03;;;14.64;57.79
17649;BME280;8943;51.110;-4.158;2023-02-19T04:01:48;102410.38;;;14.55;57.44
17649;BME280;8943;51.110;-4.158;2023-02-19T04:04:23;102399.16;;;14.48;57.15
17649;BME280;8943;51.110;-4.158;2023-02-19T04:06:55;102402.31;;;14.40;57.61
17649;BME280;8943;51.110;-4.158;2023-02-19T04:09:27;102401.03;;;14.32;57.46
17649;BME280;8943;51.110;-4.158;2023-02-19T04:11:57;102422.31;;;14.21;57.32
17649;BME280;8943;51.110;-4.158;2023-02-19T04:14:28;102424.41;;;14.15;57.31
17649;BME280;8943;51.110;-4.158;2023-02-19T04:17:02;102426.31;;;14.13;57.78
17649;BME280;8943;51.110;-4.158;2023-02-19T04:19:36;102433.38;;;14.14;57.58
17649;BME280;8943;51.110;-4.158;2023-02-19T04:22:08;102440.41;;;14.17;57.65
17649;BME280;8943;51.110;-4.158;2023-02-19T04:24:39;102440.13;;;14.22;57.27
17649;BME280;8943;51.110;-4.158;2023-02-19T04:27:09;102436.00;;;14.30;57.40
17649;BME280;8943;51.110;-4.158;2023-02-19T04:29:38;102433.13;;;14.33;57.71
17649;BME280;8943;51.110;-4.158;2023-02-19T04:32:09;102412.34;;;14.37;57.58
17649;BME280;8943;51.110;-4.158;2023-02-19T04:34:38;102420.28;;;14.38;57.52
17649;BME280;8943;51.110;-4.158;2023-02-19T04:37:07;102411.38;;;14.38;57.40
17649;BME280;8943;51.110;-4.158;2023-02-19T04:39:35;102414.16;;;14.36;57.44
17649;BME280;8943;51.110;-4.158;2023-02-19T04:42:03;102423.25;;;14.34;57.18
17649;BME280;8943;51.110;-4.158;2023-02-19T04:44:32;102425.19;;;14.32;57.36
17649;BME280;8943;51.110;-4.158;2023-02-19T04:47:00;102422.50;;;14.32;57.28
17649;BME280;8943;51.110;-4.158;2023-02-19T04:49:28;102437.63;;;14.33;57.44
17649;BME280;8943;51.110;-4.158;2023-02-19T04:51:58;102447.38;;;14.34;57.63
17649;BME280;8943;51.110;-4.158;2023-02-19T04:54:26;102437.53;;;14.34;57.80
17649;BME280;8943;51.110;-4.158;2023-02-19T04:56:54;102445.66;;;14.33;57.65
17649;BME280;8943;51.110;-4.158;2023-02-19T04:59:23;102437.53;;;14.34;57.80
17649;BME280;8943;51.110;-4.158;2023-02-19T05:01:51;102439.34;;;14.34;57.81
17649;BME280;8943;51.110;-4.158;2023-02-19T05:04:19;102443.84;;;14.33;57.64
17649;BME280;8943;51.110;-4.158;2023-02-19T05:06:47;102442.22;;;14.31;57.87
17649;BME280;8943;51.110;-4.158;2023-02-19T05:09:17;102447.59;;;14.31;57.91
17649;BME280;8943;51.110;-4.158;2023-02-19T05:11:45;102459.94;;;14.33;57.95
17649;BME280;8943;51.110;-4.158;2023-02-19T05:14:13;102472.50;;;14.33;58.06
17649;BME280;8943;51.110;-4.158;2023-02-19T05:16:43;102466.94;;;14.36;57.96
17649;BME280;8943;51.110;-4.158;2023-02-19T05:19:11;102474.59;;;14.42;58.00
17649;BME280;8943;51.110;-4.158;2023-02-19T05:21:39;102467.41;;;14.42;58.37
17649;BME280;8943;51.110;-4.158;2023-02-19T05:24:08;102470.78;;;14.46;57.89
17649;BME280;8943;51.110;-4.158;2023-02-19T05:26:37;102467.13;;;14.47;58.10
17649;BME280;8943;51.110;-4.158;2023-02-19T05:29:05;102472.50;;;14.47;58.01
17649;BME280;8943;51.110;-4.158;2023-02-19T05:31:34;102475.19;;;14.47;57.83
17649;BME280;8943;51.110;-4.158;2023-02-19T05:34:02;102484.91;;;14.50;57.82
17649;BME280;8943;51.110;-4.158;2023-02-19T05:36:31;102484.97;;;14.48;58.18
17649;BME280;8943;51.110;-4.158;2023-02-19T05:38:59;102480.47;;;14.49;57.89
17649;BME280;8943;51.110;-4.158;2023-02-19T05:41:30;102478.59;;;14.51;57.71
17649;BME280;8943;51.110;-4.158;2023-02-19T05:43:59;102479.25;;;14.54;58.03
17649;BME280;8943;51.110;-4.158;2023-02-19T05:46:28;102478.19;;;14.57;57.84
17649;BME280;8943;51.110;-4.158;2023-02-19T05:48:56;102477.16;;;14.59;57.81
17649;BME280;8943;51.110;-4.158;2023-02-19T05:51:26;102484.03;;;14.63;57.86
17649;BME280;8943;51.110;-4.158;2023-02-19T05:53:55;102487.78;;;14.61;57.71
17649;BME280;8943;51.110;-4.158;2023-02-19T05:56:28;102479.91;;;14.58;57.93
17649;BME280;8943;51.110;-4.158;2023-02-19T05:58:57;102490.63;;;14.58;57.94
17649;BME280;8943;51.110;-4.158;2023-02-19T06:01:28;102490.75;;;14.56;57.54
17649;BME280;8943;51.110;-4.158;2023-02-19T06:03:56;102490.16;;;14.51;57.97
17649;BME280;8943;51.110;-4.158;2023-02-19T06:06:26;102495.53;;;14.51;58.08
17649;BME280;8943;51.110;-4.158;2023-02-19T06:08:54;102501.00;;;14.50;57.99
17649;BME280;8943;51.110;-4.158;2023-02-19T06:11:23;102494.75;;;14.49;57.95
17649;BME280;8943;51.110;-4.158;2023-02-19T06:13:52;102498.22;;;14.51;58.01
17649;BME280;8943;51.110;-4.158;2023-02-19T06:16:20;102507.03;;;14.53;57.92
17649;BME280;8943;51.110;-4.158;2023-02-19T06:18:50;102516.81;;;14.54;58.09
17649;BME280;8943;51.110;-4.158;2023-02-19T06:21:18;102529.53;;;14.51;58.04
17649;BME280;8943;51.110;-4.158;2023-02-19T06:23:46;102532.41;;;14.48;58.01
17649;BME280;8943;51.110;-4.158;2023-02-19T06:26:16;102532.66;;;14.43;57.83
17649;BME280;8943;51.110;-4.158;2023-02-19T06:28:46;102523.00;;;14.40;57.75
17649;BME280;8943;51.110;-4.158;2023-02-19T06:31:14;102520.38;;;14.39;57.95
17649;BME280;8943;51.110;-4.158;2023-02-19T06:33:43;102511.56;;;14.37;57.84
17649;BME280;8943;51.110;-4.158;2023-02-19T06:36:15;102509.06;;;14.34;57.87
17649;BME280;8943;51.110;-4.158;2023-02-19T06:38:43;102512.22;;;14.26;57.66
17649;BME280;8943;51.110;-4.158;2023-02-19T06:41:12;102514.59;;;14.16;57.77
17649;BME280;8943;51.110;-4.158;2023-02-19T06:43:40;102522.06;;;14.11;57.77
17649;BME280;8943;51.110;-4.158;2023-02-19T06:46:10;102520.63;;;14.06;57.56
17649;BME280;8943;51.110;-4.158;2023-02-19T06:48:39;102532.63;;;13.99;57.65
17649;BME280;8943;51.110;-4.158;2023-02-19T06:51:10;102528.41;;;13.95;57.34
17649;BME280;8943;51.110;-4.158;2023-02-19T06:53:40;102533.09;;;13.91;57.78
17649;BME280;8943;51.110;-4.158;2023-02-19T06:56:21;102531.56;;;13.87;57.49
17649;BME280;8943;51.110;-4.158;2023-02-19T06:58:50;102536.22;;;13.83;57.43
17649;BME280;8943;51.110;-4.158;2023-02-19T07:01:19;102523.34;;;13.74;57.38
17649;BME280;8943;51.110;-4.158;2023-02-19T07:03:47;102521.81;;;13.70;57.56
17649;BME280;8943;51.110;-4.158;2023-02-19T07:06:15;102519.22;;;13.69;57.12
17649;BME280;8943;51.110;-4.158;2023-02-19T07:08:45;102501.00;;;13.59;57.01
17649;BME280;8943;51.110;-4.158;2023-02-19T07:11:13;102494.28;;;13.52;57.22
17649;BME280;8943;51.110;-4.158;2023-02-19T07:13:41;102501.72;;;13.47;57.24
17649;BME280;8943;51.110;-4.158;2023-02-19T07:16:10;102523.47;;;13.41;57.39
17649;BME280;8943;51.110;-4.158;2023-02-19T07:18:39;102534.38;;;13.38;57.45
17649;BME280;8943;51.110;-4.158;2023-02-19T07:21:10;102530.91;;;13.36;57.50
17649;BME280;8943;51.110;-4.158;2023-02-19T07:23:39;102538.16;;;13.34;57.51
17649;BME280;8943;51.110;-4.158;2023-02-19T07:26:10;102529.53;;;13.29;57.51
17649;BME280;8943;51.110;-4.158;2023-02-19T07:28:39;102535.03;;;13.26;57.80
17649;BME280;8943;51.110;-4.158;2023-02-19T07:31:07;102529.69;;;13.26;57.72
17649;BME280;8943;51.110;-4.158;2023-02-19T07:33:36;102525.19;;;13.26;57.75
17649;BME280;8943;51.110;-4.158;2023-02-19T07:36:06;102518.81;;;13.29;57.72
17649;BME280;8943;51.110;-4.158;2023-02-19T07:38:35;102534.88;;;13.29;57.84
17649;BME280;8943;51.110;-4.158;2023-02-19T07:41:04;102524.88;;;13.32;57.90
17649;BME280;8943;51.110;-4.158;2023-02-19T07:43:35;102512.16;;;13.36;57.75
17649;BME280;8943;51.110;-4.158;2023-02-19T07:46:04;102501.19;;;13.40;57.71
17649;BME280;8943;51.110;-4.158;2023-02-19T07:48:33;102499.97;;;13.46;57.62
17649;BME280;8943;51.110;-4.158;2023-02-19T07:51:03;102506.00;;;13.50;57.91
17649;BME280;8943;51.110;-4.158;2023-02-19T07:53:32;102506.72;;;13.53;57.52
17649;BME280;8943;51.110;-4.158;2023-02-19T07:56:03;102503.69;;;13.59;57.53
17649;BME280;8943;51.110;-4.158;2023-02-19T07:58:33;102514.38;;;13.59;57.56
17649;BME280;8943;51.110;-4.158;2023-02-19T08:01:06;102513.25;;;13.63;57.62
17649;BME280;8943;51.110;-4.158;2023-02-19T08:03:36;102513.25;;;13.63;57.48
17649;BME280;8943;51.110;-4.158;2023-02-19T08:06:04;102503.25;;;13.67;57.52
17649;BME280;8943;51.110;-4.158;2023-02-19T08:08:33;102495.88;;;13.71;57.46
17649;BME280;8943;51.110;-4.158;2023-02-19T08:11:02;102504.50;;;13.76;57.59
17649;BME280;8943;51.110;-4.158;2023-02-19T08:13:50;102507.00;;;13.79;57.50
17649;BME280;8943;51.110;-4.158;2023-02-19T08:16:18;102510.44;;;13.81;57.33
17649;BME280;8943;51.110;-4.158;2023-02-19T08:19:06;102510.44;;;13.81;57.48
17649;BME280;8943;51.110;-4.158;2023-02-19T08:21:34;102514.09;;;13.80;57.55
17649;BME280;8943;51.110;-4.158;2023-02-19T08:24:03;102510.28;;;13.84;57.42
17649;BME280;8943;51.110;-4.158;2023-02-19T08:26:31;102510.13;;;13.87;57.79
17649;BME280;8943;51.110;-4.158;2023-02-19T08:29:03;102505.25;;;13.94;57.48
17649;BME280;8943;51.110;-4.158;2023-02-19T08:31:33;102509.38;;;13.99;57.47
17649;BME280;8943;51.110;-4.158;2023-02-19T08:34:01;102520.88;;;14.01;57.52
17649;BME280;8943;51.110;-4.158;2023-02-19T08:36:30;102520.88;;;14.01;57.46
17649;BME280;8943;51.110;-4.158;2023-02-19T08:38:58;102527.16;;;14.00;57.54
17649;BME280;8943;51.110;-4.158;2023-02-19T08:41:25;102534.28;;;14.01;57.66
17649;BME280;8943;51.110;-4.158;2023-02-19T08:43:54;102521.81;;;14.00;57.75
17649;BME280;8943;51.110;-4.158;2023-02-19T08:46:23;102527.16;;;14.00;58.03
17649;BME280;8943;51.110;-4.158;2023-02-19T08:48:52;102526.16;;;14.03;57.76
17649;BME280;8943;51.110;-4.158;2023-02-19T08:51:20;102528.56;;;14.07;58.08
17649;BME280;8943;51.110;-4.158;2023-02-19T08:53:47;102522.81;;;14.13;57.79
17649;BME280;8943;51.110;-4.158;2023-02-19T08:56:16;102514.97;;;14.25;58.06
17649;BME280;8943;51.110;-4.158;2023-02-19T08:58:44;102517.13;;;14.34;58.11
17649;BME280;8943;51.110;-4.158;2023-02-19T09:01:14;102528.06;;;14.45;58.00
17649;BME280;8943;51.110;-4.158;2023-02-19T09:03:45;102522.47;;;14.50;57.75
17649;BME280;8943;51.110;-4.158;2023-02-19T09:06:15;102521.22;;;14.55;58.03
17649;BME280;8943;51.110;-4.158;2023-02-19T09:08:44;102518.53;;;14.55;57.70
17649;BME280;8943;51.110;-4.158;2023-02-19T09:11:12;102536.47;;;14.55;57.60
17649;BME280;8943;51.110;-4.158;2023-02-19T09:13:41;102542.75;;;14.54;57.53
17649;BME280;8943;51.110;-4.158;2023-02-19T09:16:09;102541.63;;;14.58;57.60
17649;BME280;8943;51.110;-4.158;2023-02-19T09:18:38;102549.00;;;14.54;57.33
17649;BME280;8943;51.110;-4.158;2023-02-19T09:21:07;102545.72;;;14.49;57.38
17649;BME280;8943;51.110;-4.158;2023-02-19T09:23:36;102539.56;;;14.47;57.43
17649;BME280;8943;51.110;-4.158;2023-02-19T09:26:05;102552.50;;;14.40;57.37
17649;BME280;8943;51.110;-4.158;2023-02-19T09:28:36;102558.19;;;14.34;57.33
17649;BME280;8943;51.110;-4.158;2023-02-19T09:31:09;102573.53;;;14.32;57.54
17649;BME280;8943;51.110;-4.158;2023-02-19T09:33:41;102574.28;;;14.34;57.54
17649;BME280;8943;51.110;-4.158;2023-02-19T09:36:11;102573.25;;;14.37;58.08
17649;BME280;8943;51.110;-4.158;2023-02-19T09:38:39;102576.53;;;14.42;57.55
17649;BME280;8943;51.110;-4.158;2023-02-19T09:41:14;102580.94;;;14.43;57.45
17649;BME280;8943;51.110;-4.158;2023-02-19T09:43:43;102583.72;;;14.41;57.51
17649;BME280;8943;51.110;-4.158;2023-02-19T09:46:22;102597.22;;;14.40;57.66
17649;BME280;8943;51.110;-4.158;2023-02-19T09:48:52;102621.38;;;14.40;57.53
17649;BME280;8943;51.110;-4.158;2023-02-19T09:51:23;102616.00;;;14.40;57.64
17649;BME280;8943;51.110;-4.158;2023-02-19T09:53:56;102628.25;;;14.44;57.76
17649;BME280;8943;51.110;-4.158;2023-02-19T09:56:25;102617.97;;;14.52;57.62
17649;BME280;8943;51.110;-4.158;2023-02-19T09:58:55;102633.78;;;14.57;57.50
17649;BME280;8943;51.110;-4.158;2023-02-19T10:01:27;102609.38;;;14.61;57.23
17649;BME280;8943;51.110;-4.158;2023-02-19T10:03:57;102615.50;;;14.63;57.06
17649;BME280;8943;51.110;-4.158;2023-02-19T10:06:27;102634.28;;;14.63;56.93
17649;BME280;8943;51.110;-4.158;2023-02-19T10:09:10;102626.16;;;14.65;56.48
17649;BME280;8943;51.110;-4.158;2023-02-19T10:11:40;102637.66;;;14.67;56.42
17649;BME280;8943;51.110;-4.158;2023-02-19T10:14:13;102632.88;;;14.72;56.28
17649;BME280;8943;51.110;-4.158;2023-02-19T10:16:44;102628.94;;;14.78;56.07
17649;BME280;8943;51.110;-4.158;2023-02-19T10:19:14;102640.47;;;14.80;55.79
17649;BME280;8943;51.110;-4.158;2023-02-19T10:21:45;102642.19;;;14.81;55.94
17649;BME280;8943;51.110;-4.158;2023-02-19T10:24:18;102650.81;;;14.86;55.81
17649;BME280;8943;51.110;-4.158;2023-02-19T10:26:48;102658.69;;;14.89;55.63
17649;BME280;8943;51.110;-4.158;2023-02-19T10:29:17;102663.69;;;14.95;55.85
17649;BME280;8943;51.110;-4.158;2023-02-19T10:31:45;102664.38;;;15.13;55.80
17649;BME280;8943;51.110;-4.158;2023-02-19T10:34:17;102668.50;;;15.18;55.87
17649;BME280;8943;51.110;-4.158;2023-02-19T10:36:50;102663.91;;;15.35;54.43
17649;BME280;8943;51.110;-4.158;2023-02-19T10:39:37;102688.84;;;15.37;53.45
17649;BME280;8943;51.110;-4.158;2023-02-19T10:42:17;102685.38;;;15.35;53.28
17649;BME280;8943;51.110;-4.158;2023-02-19T10:44:50;102683.28;;;15.40;53.36
17649;BME280;8943;51.110;-4.158;2023-02-19T10:47:21;102686.34;;;15.48;53.53
17649;BME280;8943;51.110;-4.158;2023-02-19T10:49:52;102689.03;;;15.62;53.55
17649;BME280;8943;51.110;-4.158;2023-02-19T10:52:28;102691.06;;;15.73;53.20
17649;BME280;8943;51.110;-4.158;2023-02-19T10:55:13;102691.44;;;15.81;53.33
17649;BME280;8943;51.110;-4.158;2023-02-19T10:57:42;102690.94;;;15.89;53.33
17649;BME280;8943;51.110;-4.158;2023-02-19T11:00:20;102682.13;;;15.87;52.44
17649;BME280;8943;51.110;-4.158;2023-02-19T11:03:18;102686.63;;;15.86;52.50
17649;BME280;8943;51.110;-4.158;2023-02-19T11:05:55;102683.47;;;15.80;52.19
17649;BME280;8943;51.110;-4.158;2023-02-19T11:08:26;102683.47;;;15.80;52.10
17649;BME280;8943;51.110;-4.158;2023-02-19T11:10:55;102686.06;;;15.81;52.11
17649;BME280;8943;51.110;-4.158;2023-02-19T11:13:27;102687.28;;;15.90;52.34
17649;BME280;8943;51.110;-4.158;2023-02-19T11:15:58;102685.16;;;15.95;52.39
17649;BME280;8943;51.110;-4.158;2023-02-19T11:18:28;102684.56;;;16.04;52.69
17649;BME280;8943;51.110;-4.158;2023-02-19T11:20:59;102686.75;;;16.12;52.13
17649;BME280;8943;51.110;-4.158;2023-02-19T11:23:31;102691.53;;;16.21;51.84
17649;BME280;8943;51.110;-4.158;2023-02-19T11:26:03;102692.72;;;16.30;52.01
17649;BME280;8943;51.110;-4.158;2023-02-19T11:28:34;102687.94;;;16.35;52.11
17649;BME280;8943;51.110;-4.158;2023-02-19T11:31:16;102689.25;;;16.42;51.85
17649;BME280;8943;51.110;-4.158;2023-02-19T11:33:53;102691.94;;;16.42;50.71
17649;BME280;8943;51.110;-4.158;2023-02-19T11:36:31;102682.69;;;16.46;50.95
17649;BME280;8943;51.110;-4.158;2023-02-19T11:39:18;102674.63;;;16.46;50.78
17649;BME280;8943;51.110;-4.158;2023-02-19T11:42:07;102671.63;;;16.51;50.47
17649;BME280;8943;51.110;-4.158;2023-02-19T11:44:48;102669.25;;;16.46;49.25
17649;BME280;8943;51.110;-4.158;2023-02-19T11:47:57;102662.34;;;16.42;48.90
17649;BME280;8943;51.110;-4.158;2023-02-19T11:50:32;102663.75;;;16.47;49.38
17649;BME280;8943;51.110;-4.158;2023-02-19T11:53:15;102667.00;;;16.53;49.06
17649;BME280;8943;51.110;-4.158;2023-02-19T11:55:56;102671.09;;;16.58;49.42
17649;BME280;8943;51.110;-4.158;2023-02-19T11:58:58;102654.50;;;16.52;48.75
17649;BME280;8943;51.110;-4.158;2023-02-19T12:01:53;102667.72;;;16.42;49.24
17649;BME280;8943;51.110;-4.158;2023-02-19T12:04:41;102673.28;;;16.39;49.43
17649;BME280;8943;51.110;-4.158;2023-02-19T12:07:20;102673.28;;;16.39;49.14
17649;BME280;8943;51.110;-4.158;2023-02-19T12:09:59;102684.84;;;16.41;49.37
17649;BME280;8943;51.110;-4.158;2023-02-19T12:12:44;102671.69;;;16.36;49.46
17649;BME280;8943;51.110;-4.158;2023-02-19T12:15:28;102667.88;;;16.26;49.32
17649;BME280;8943;51.110;-4.158;2023-02-19T12:18:21;102666.56;;;16.19;49.56
17649;BME280;8943;51.110;-4.158;2023-02-19T12:21:05;102660.63;;;16.14;49.50
17649;BME280;8943;51.110;-4.158;2023-02-19T12:23:54;102656.31;;;16.11;49.45
17649;BME280;8943;51.110;-4.158;2023-02-19T12:26:28;102659.59;;;16.02;49.61
17649;BME280;8943;51.110;-4.158;2023-02-19T12:29:12;102663.47;;;15.98;49.80
17649;BME280;8943;51.110;-4.158;2023-02-19T12:35:03;102637.13;;;16.03;49.87
17649;BME280;8943;51.110;-4.158;2023-02-19T12:37:43;102625.31;;;16.06;49.93
17649;BME280;8943;51.110;-4.158;2023-02-19T12:40:24;102629.63;;;16.08;49.77
17649;BME280;8943;51.110;-4.158;2023-02-19T12:43:04;102621.53;;;16.08;49.50
17649;BME280;8943;51.110;-4.158;2023-02-19T12:45:42;102623.06;;;16.12;49.64
17649;BME280;8943;51.110;-4.158;2023-02-19T12:48:19;102606.31;;;16.21;49.73
17649;BME280;8943;51.110;-4.158;2023-02-19T12:50:55;102606.56;;;16.44;49.90
17649;BME280;8943;51.110;-4.158;2023-02-19T12:53:32;102610.59;;;16.64;49.50
17649;BME280;8943;51.110;-4.158;2023-02-19T12:56:04;102611.38;;;16.79;49.02
17649;BME280;8943;51.110;-4.158;2023-02-19T12:58:40;102599.56;;;16.81;48.21
17649;BME280;8943;51.110;-4.158;2023-02-19T13:01:14;102601.50;;;16.92;48.30
17649;BME280;8943;51.110;-4.158;2023-02-19T13:03:49;102592.44;;;16.93;47.92
17649;BME280;8943;51.110;-4.158;2023-02-19T13:06:31;102586.63;;;16.99;47.30
17649;BME280;8943;51.110;-4.158;2023-02-19T13:09:05;102570.47;;;16.99;47.37
17649;BME280;8943;51.110;-4.158;2023-02-19T13:11:41;102591.13;;;17.11;46.70
17649;BME280;8943;51.110;-4.158;2023-02-19T13:14:16;102575.09;;;17.10;46.63
17649;BME280;8943;51.110;-4.158;2023-02-19T13:16:59;102578.84;;;17.07;46.23
17649;BME280;8943;51.110;-4.158;2023-02-19T13:19:29;102583.16;;;17.10;46.85
17649;BME280;8943;51.110;-4.158;2023-02-19T13:22:03;102596.41;;;17.13;46.64
17649;BME280;8943;51.110;-4.158;2023-02-19T13:24:54;102582.75;;;17.03;45.98